sensor_id;sensor_type;location;lat;lon;timestamp;temperature;humidity
11559;DHT22;5835;42.930;25.178;2022-12-07T00:00:55;3.10;99.90
11559;DHT22;5835;42.930;25.178;2022-12-07T00:03:31;3.10;99.90
11559;DHT22;5835;42.930;25.178;2022-12-07T00:05:58;3.10;99.90
11559;DHT22;5835;42.930;25.178;2022-12-07T00:08:26;3.20;99.90
11559;DHT22;5835;42.930;25.178;2022-12-07T00:10:54;3.20;99.90
11559;DHT22;5835;42.930;25.178;2022-12-07T00:13:23;3.10;99.90
11559;DHT22;5835;42.930;25.178;2022-12-07T00:15:51;3.20;99.90
11559;DHT22;5835;42.930;25.178;2022-12-07T00:18:19;3.20;99.90
11559;DHT22;5835;42.930;25.178;2022-12-07T00:20:46;3.30;99.90
11559;DHT22;5835;42.930;25.178;2022-12-07T00:23:14;3.30;99.90
11559;DHT22;5835;42.930;25.178;2022-12-07T00:25:42;3.40;99.90
11559;DHT22;5835;42.930;25.178;2022-12-07T00:28:09;3.50;99.90
11559;DHT22;5835;42.930;25.178;2022-12-07T00:30:38;3.50;99.90
11559;DHT22;5835;42.930;25.178;2022-12-07T00:33:06;3.50;99.90
11559;DHT22;5835;42.930;25.178;2022-12-07T00:35:33;3.40;99.90
11559;DHT22;5835;42.930;25.178;2022-12-07T00:38:00;3.40;99.90
11559;DHT22;5835;42.930;25.178;2022-12-07T00:40:28;3.50;99.90
11559;DHT22;5835;42.930;25.178;2022-12-07T00:42:59;3.50;99.90
11559;DHT22;5835;42.930;25.178;2022-12-07T00:48:33;3.90;99.90
11559;DHT22;5835;42.930;25.178;2022-12-07T00:51:00;4.00;99.90
11559;DHT22;5835;42.930;25.178;2022-12-07T00:53:28;4.00;99.90
11559;DHT22;5835;42.930;25.178;2022-12-07T00:56:18;4.10;99.90
11559;DHT22;5835;42.930;25.178;2022-12-07T00:58:50;4.10;99.90
11559;DHT22;5835;42.930;25.178;2022-12-07T01:01:19;4.20;99.90
11559;DHT22;5835;42.930;25.178;2022-12-07T01:03:48;4.20;99.90
11559;DHT22;5835;42.930;25.178;2022-12-07T01:06:17;4.20;99.90
11559;DHT22;5835;42.930;25.178;2022-12-07T01:08:45;4.20;99.90
11559;DHT22;5835;42.930;25.178;2022-12-07T01:11:14;4.30;99.90
11559;DHT22;5835;42.930;25.178;2022-12-07T01:13:43;4.40;99.90
11559;DHT22;5835;42.930;25.178;2022-12-07T01:16:12;4.30;99.90
11559;DHT22;5835;42.930;25.178;2022-12-07T01:18:40;4.40;99.90
11559;DHT22;5835;42.930;25.178;2022-12-07T01:21:11;4.50;99.90
11559;DHT22;5835;42.930;25.178;2022-12-07T01:23:40;4.60;99.90
11559;DHT22;5835;42.930;25.178;2022-12-07T01:29:29;4.50;99.90
11559;DHT22;5835;42.930;25.178;2022-12-07T01:32:10;4.50;99.90
11559;DHT22;5835;42.930;25.178;2022-12-07T01:34:38;4.50;99.90
11559;DHT22;5835;42.930;25.178;2022-12-07T01:37:07;4.50;99.90
11559;DHT22;5835;42.930;25.178;2022-12-07T01:39:35;4.60;99.90
11559;DHT22;5835;42.930;25.178;2022-12-07T01:42:03;4.60;99.90
11559;DHT22;5835;42.930;25.178;2022-12-07T01:44:30;4.70;99.90
11559;DHT22;5835;42.930;25.178;2022-12-07T01:47:00;4.60;99.90
11559;DHT22;5835;42.930;25.178;2022-12-07T01:49:31;4.70;99.90
11559;DHT22;5835;42.930;25.178;2022-12-07T01:52:13;4.60;99.90
11559;DHT22;5835;42.930;25.178;2022-12-07T01:54:42;4.60;99.90
11559;DHT22;5835;42.930;25.178;2022-12-07T01:57:13;4.40;99.90
11559;DHT22;5835;42.930;25.178;2022-12-07T01:59:43;4.40;99.90
11559;DHT22;5835;42.930;25.178;2022-12-07T02:02:18;4.40;99.90
11559;DHT22;5835;42.930;25.178;2022-12-07T02:04:46;4.20;99.90
11559;DHT22;5835;42.930;25.178;2022-12-07T02:07:15;4.10;99.90
11559;DHT22;5835;42.930;25.178;2022-12-07T02:09:43;4.20;99.90
11559;DHT22;5835;42.930;25.178;2022-12-07T02:12:11;4.30;99.90
11559;DHT22;5835;42.930;25.178;2022-12-07T02:14:39;4.30;99.90
11559;DHT22;5835;42.930;25.178;2022-12-07T02:17:12;4.30;99.90
11559;DHT22;5835;42.930;25.178;2022-12-07T02:23:31;4.10;99.90
11559;DHT22;5835;42.930;25.178;2022-12-07T02:26:39;4.20;99.90
11559;DHT22;5835;42.930;25.178;2022-12-07T02:29:15;4.30;99.90
11559;DHT22;5835;42.930;25.178;2022-12-07T02:31:46;4.40;99.90
11559;DHT22;5835;42.930;25.178;2022-12-07T02:34:21;4.50;99.90
11559;DHT22;5835;42.930;25.178;2022-12-07T02:36:55;4.50;99.90
11559;DHT22;5835;42.930;25.178;2022-12-07T02:39:29;4.50;99.90
11559;DHT22;5835;42.930;25.178;2022-12-07T02:42:03;4.50;99.90
11559;DHT22;5835;42.930;25.178;2022-12-07T02:44:37;4.70;99.90
11559;DHT22;5835;42.930;25.178;2022-12-07T02:47:08;4.70;99.90
11559;DHT22;5835;42.930;25.178;2022-12-07T02:49:38;4.80;99.90
11559;DHT22;5835;42.930;25.178;2022-12-07T02:52:07;4.70;99.90
11559;DHT22;5835;42.930;25.178;2022-12-07T02:54:35;4.60;99.90
11559;DHT22;5835;42.930;25.178;2022-12-07T02:57:14;4.50;99.90
11559;DHT22;5835;42.930;25.178;2022-12-07T02:59:59;4.60;99.90
11559;DHT22;5835;42.930;25.178;2022-12-07T03:02:36;4.40;99.90
11559;DHT22;5835;42.930;25.178;2022-12-07T03:05:16;4.60;99.90
11559;DHT22;5835;42.930;25.178;2022-12-07T03:07:51;4.60;99.90
11559;DHT22;5835;42.930;25.178;2022-12-07T03:10:27;4.60;99.90
11559;DHT22;5835;42.930;25.178;2022-12-07T03:13:02;4.50;99.90
11559;DHT22;5835;42.930;25.178;2022-12-07T03:15:34;4.60;99.90
11559;DHT22;5835;42.930;25.178;2022-12-07T03:18:04;4.70;99.90
11559;DHT22;5835;42.930;25.178;2022-12-07T03:20:33;4.70;99.90
11559;DHT22;5835;42.930;25.178;2022-12-07T03:23:04;4.60;99.90
11559;DHT22;5835;42.930;25.178;2022-12-07T03:25:34;4.60;99.90
11559;DHT22;5835;42.930;25.178;2022-12-07T03:28:05;4.50;99.90
11559;DHT22;5835;42.930;25.178;2022-12-07T03:30:39;4.40;99.90
11559;DHT22;5835;42.930;25.178;2022-12-07T03:33:12;4.40;99.90
11559;DHT22;5835;42.930;25.178;2022-12-07T03:35:43;4.40;99.90
11559;DHT22;5835;42.930;25.178;2022-12-07T03:38:17;4.30;99.90
11559;DHT22;5835;42.930;25.178;2022-12-07T03:40:54;4.40;99.90
11559;DHT22;5835;42.930;25.178;2022-12-07T03:43:25;4.40;99.90
11559;DHT22;5835;42.930;25.178;2022-12-07T03:46:03;4.40;99.90
11559;DHT22;5835;42.930;25.178;2022-12-07T03:48:37;4.40;99.90
11559;DHT22;5835;42.930;25.178;2022-12-07T03:51:11;4.50;99.90
11559;DHT22;5835;42.930;25.178;2022-12-07T03:53:44;4.40;99.90
11559;DHT22;5835;42.930;25.178;2022-12-07T03:56:14;4.40;99.90
11559;DHT22;5835;42.930;25.178;2022-12-07T03:58:43;4.40;99.90
11559;DHT22;5835;42.930;25.178;2022-12-07T04:01:13;4.50;99.90
11559;DHT22;5835;42.930;25.178;2022-12-07T04:03:41;4.50;99.90
11559;DHT22;5835;42.930;25.178;2022-12-07T04:06:10;4.60;99.90
11559;DHT22;5835;42.930;25.178;2022-12-07T04:08:39;4.60;99.90
11559;DHT22;5835;42.930;25.178;2022-12-07T04:11:07;4.70;99.90
11559;DHT22;5835;42.930;25.178;2022-12-07T04:13:35;4.70;99.90
11559;DHT22;5835;42.930;25.178;2022-12-07T04:16:25;4.60;99.90
11559;DHT22;5835;42.930;25.178;2022-12-07T04:18:54;4.40;99.90
11559;DHT22;5835;42.930;25.178;2022-12-07T04:21:23;4.60;99.90
11559;DHT22;5835;42.930;25.178;2022-12-07T04:23:52;4.60;99.90
11559;DHT22;5835;42.930;25.178;2022-12-07T04:26:19;4.70;99.90
11559;DHT22;5835;42.930;25.178;2022-12-07T04:28:47;4.70;99.90
11559;DHT22;5835;42.930;25.178;2022-12-07T04:31:14;4.60;99.90
11559;DHT22;5835;42.930;25.178;2022-12-07T04:33:44;4.40;99.90
11559;DHT22;5835;42.930;25.178;2022-12-07T04:36:12;4.40;99.90
11559;DHT22;5835;42.930;25.178;2022-12-07T04:38:41;4.30;99.90
11559;DHT22;5835;42.930;25.178;2022-12-07T04:41:09;4.20;99.90
11559;DHT22;5835;42.930;25.178;2022-12-07T04:43:39;4.30;99.90
11559;DHT22;5835;42.930;25.178;2022-12-07T04:46:09;4.50;99.90
11559;DHT22;5835;42.930;25.178;2022-12-07T04:48:37;4.50;99.90
11559;DHT22;5835;42.930;25.178;2022-12-07T04:51:08;4.40;99.90
11559;DHT22;5835;42.930;25.178;2022-12-07T04:53:35;4.40;99.90
11559;DHT22;5835;42.930;25.178;2022-12-07T04:56:03;4.40;99.90
11559;DHT22;5835;42.930;25.178;2022-12-07T04:58:31;4.40;99.90
11559;DHT22;5835;42.930;25.178;2022-12-07T05:00:58;4.40;99.90
11559;DHT22;5835;42.930;25.178;2022-12-07T05:03:26;4.30;99.90
11559;DHT22;5835;42.930;25.178;2022-12-07T05:05:54;4.30;99.90
11559;DHT22;5835;42.930;25.178;2022-12-07T05:08:23;4.30;99.90
11559;DHT22;5835;42.930;25.178;2022-12-07T05:10:50;4.30;99.90
11559;DHT22;5835;42.930;25.178;2022-12-07T05:13:18;4.20;99.90
11559;DHT22;5835;42.930;25.178;2022-12-07T05:15:47;4.20;99.90
11559;DHT22;5835;42.930;25.178;2022-12-07T05:18:14;4.20;99.90
11559;DHT22;5835;42.930;25.178;2022-12-07T05:20:42;4.10;99.90
11559;DHT22;5835;42.930;25.178;2022-12-07T05:23:10;4.00;99.90
11559;DHT22;5835;42.930;25.178;2022-12-07T05:25:39;3.70;99.90
11559;DHT22;5835;42.930;25.178;2022-12-07T05:28:07;3.70;99.90
11559;DHT22;5835;42.930;25.178;2022-12-07T05:30:35;3.70;99.90
11559;DHT22;5835;42.930;25.178;2022-12-07T05:33:03;3.60;99.90
11559;DHT22;5835;42.930;25.178;2022-12-07T05:35:31;3.50;99.90
11559;DHT22;5835;42.930;25.178;2022-12-07T05:37:59;3.60;99.90
11559;DHT22;5835;42.930;25.178;2022-12-07T05:40:26;3.50;99.90
11559;DHT22;5835;42.930;25.178;2022-12-07T05:42:55;3.30;99.90
11559;DHT22;5835;42.930;25.178;2022-12-07T05:45:23;3.30;99.90
11559;DHT22;5835;42.930;25.178;2022-12-07T05:47:50;3.10;99.90
11559;DHT22;5835;42.930;25.178;2022-12-07T05:50:18;3.00;99.90
11559;DHT22;5835;42.930;25.178;2022-12-07T05:52:45;3.00;99.90
11559;DHT22;5835;42.930;25.178;2022-12-07T05:55:13;3.00;99.90
11559;DHT22;5835;42.930;25.178;2022-12-07T05:57:41;3.10;99.90
11559;DHT22;5835;42.930;25.178;2022-12-07T06:00:30;3.30;99.90
11559;DHT22;5835;42.930;25.178;2022-12-07T06:02:57;3.30;99.90
11559;DHT22;5835;42.930;25.178;2022-12-07T06:05:26;3.40;99.90
11559;DHT22;5835;42.930;25.178;2022-12-07T06:07:53;3.40;99.90
11559;DHT22;5835;42.930;25.178;2022-12-07T06:10:21;3.40;99.90
11559;DHT22;5835;42.930;25.178;2022-12-07T06:12:49;3.60;99.90
11559;DHT22;5835;42.930;25.178;2022-12-07T06:15:15;3.70;99.90
11559;DHT22;5835;42.930;25.178;2022-12-07T06:17:44;3.90;99.90
11559;DHT22;5835;42.930;25.178;2022-12-07T06:20:12;4.00;99.90
11559;DHT22;5835;42.930;25.178;2022-12-07T06:22:40;3.70;99.90
11559;DHT22;5835;42.930;25.178;2022-12-07T06:25:08;3.50;99.90
11559;DHT22;5835;42.930;25.178;2022-12-07T06:27:36;3.50;99.90
11559;DHT22;5835;42.930;25.178;2022-12-07T06:30:05;3.60;99.90
11559;DHT22;5835;42.930;25.178;2022-12-07T06:32:35;3.50;99.90
11559;DHT22;5835;42.930;25.178;2022-12-07T06:35:06;3.60;99.90
11559;DHT22;5835;42.930;25.178;2022-12-07T06:37:33;3.50;99.90
11559;DHT22;5835;42.930;25.178;2022-12-07T06:40:01;3.40;99.90
11559;DHT22;5835;42.930;25.178;2022-12-07T06:42:28;3.40;99.90
11559;DHT22;5835;42.930;25.178;2022-12-07T06:44:56;3.40;99.90
11559;DHT22;5835;42.930;25.178;2022-12-07T06:47:24;3.50;99.90
11559;DHT22;5835;42.930;25.178;2022-12-07T06:49:51;3.50;99.90
11559;DHT22;5835;42.930;25.178;2022-12-07T06:52:20;3.30;99.90
11559;DHT22;5835;42.930;25.178;2022-12-07T06:54:48;3.40;99.90
11559;DHT22;5835;42.930;25.178;2022-12-07T06:57:16;3.50;99.90
11559;DHT22;5835;42.930;25.178;2022-12-07T06:59:44;3.40;99.90
11559;DHT22;5835;42.930;25.178;2022-12-07T07:02:11;3.40;99.90
11559;DHT22;5835;42.930;25.178;2022-12-07T07:04:39;3.40;99.90
11559;DHT22;5835;42.930;25.178;2022-12-07T07:07:06;3.40;99.90
11559;DHT22;5835;42.930;25.178;2022-12-07T07:09:36;3.40;99.90
11559;DHT22;5835;42.930;25.178;2022-12-07T07:12:03;3.40;99.90
11559;DHT22;5835;42.930;25.178;2022-12-07T07:14:31;3.40;99.90
11559;DHT22;5835;42.930;25.178;2022-12-07T07:16:59;3.50;99.90
11559;DHT22;5835;42.930;25.178;2022-12-07T07:19:26;3.80;99.90
11559;DHT22;5835;42.930;25.178;2022-12-07T07:21:54;3.80;99.90
11559;DHT22;5835;42.930;25.178;2022-12-07T07:24:21;3.80;99.90
11559;DHT22;5835;42.930;25.178;2022-12-07T07:26:50;4.00;99.90
11559;DHT22;5835;42.930;25.178;2022-12-07T07:29:18;4.30;99.90
11559;DHT22;5835;42.930;25.178;2022-12-07T07:31:46;4.50;99.90
11559;DHT22;5835;42.930;25.178;2022-12-07T07:34:13;4.50;99.90
11559;DHT22;5835;42.930;25.178;2022-12-07T07:36:41;4.50;99.90
11559;DHT22;5835;42.930;25.178;2022-12-07T07:39:09;4.60;99.90
11559;DHT22;5835;42.930;25.178;2022-12-07T07:41:38;4.50;99.90
11559;DHT22;5835;42.930;25.178;2022-12-07T07:44:07;4.50;99.90
11559;DHT22;5835;42.930;25.178;2022-12-07T07:46:35;4.70;99.90
11559;DHT22;5835;42.930;25.178;2022-12-07T07:49:03;4.90;99.90
11559;DHT22;5835;42.930;25.178;2022-12-07T07:51:30;4.60;99.90
11559;DHT22;5835;42.930;25.178;2022-12-07T07:53:58;4.60;99.90
11559;DHT22;5835;42.930;25.178;2022-12-07T07:56:25;4.70;99.90
11559;DHT22;5835;42.930;25.178;2022-12-07T07:58:53;4.70;99.90
11559;DHT22;5835;42.930;25.178;2022-12-07T08:01:23;5.00;99.90
11559;DHT22;5835;42.930;25.178;2022-12-07T08:03:50;5.10;99.90
11559;DHT22;5835;42.930;25.178;2022-12-07T08:06:18;5.20;99.90
11559;DHT22;5835;42.930;25.178;2022-12-07T08:08:45;5.10;99.90
11559;DHT22;5835;42.930;25.178;2022-12-07T08:11:13;5.20;99.90
11559;DHT22;5835;42.930;25.178;2022-12-07T08:13:41;5.30;99.90
11559;DHT22;5835;42.930;25.178;2022-12-07T08:16:09;5.20;99.90
11559;DHT22;5835;42.930;25.178;2022-12-07T08:18:40;5.30;99.90
11559;DHT22;5835;42.930;25.178;2022-12-07T08:21:11;5.00;99.90
11559;DHT22;5835;42.930;25.178;2022-12-07T08:23:38;5.00;99.90
11559;DHT22;5835;42.930;25.178;2022-12-07T08:26:08;4.60;99.90
11559;DHT22;5835;42.930;25.178;2022-12-07T08:28:36;4.70;99.90
11559;DHT22;5835;42.930;25.178;2022-12-07T08:31:05;4.70;99.90
11559;DHT22;5835;42.930;25.178;2022-12-07T08:33:33;4.80;99.90
11559;DHT22;5835;42.930;25.178;2022-12-07T08:36:04;5.00;99.90
11559;DHT22;5835;42.930;25.178;2022-12-07T08:38:34;5.30;99.90
11559;DHT22;5835;42.930;25.178;2022-12-07T08:41:02;5.20;99.90
11559;DHT22;5835;42.930;25.178;2022-12-07T08:43:30;5.30;99.90
11559;DHT22;5835;42.930;25.178;2022-12-07T08:46:06;5.50;99.90
11559;DHT22;5835;42.930;25.178;2022-12-07T08:48:37;5.80;99.90
11559;DHT22;5835;42.930;25.178;2022-12-07T08:51:07;5.90;99.90
11559;DHT22;5835;42.930;25.178;2022-12-07T08:53:36;6.10;99.90
11559;DHT22;5835;42.930;25.178;2022-12-07T08:56:05;6.10;99.90
11559;DHT22;5835;42.930;25.178;2022-12-07T08:58:34;5.90;99.90
11559;DHT22;5835;42.930;25.178;2022-12-07T09:01:02;5.60;99.90
11559;DHT22;5835;42.930;25.178;2022-12-07T09:03:30;5.50;99.90
11559;DHT22;5835;42.930;25.178;2022-12-07T09:05:58;5.30;99.90
11559;DHT22;5835;42.930;25.178;2022-12-07T09:08:31;5.20;99.90
11559;DHT22;5835;42.930;25.178;2022-12-07T09:11:00;5.30;99.90
11559;DHT22;5835;42.930;25.178;2022-12-07T09:13:27;5.40;99.90
11559;DHT22;5835;42.930;25.178;2022-12-07T09:15:55;5.20;99.90
11559;DHT22;5835;42.930;25.178;2022-12-07T09:18:23;5.30;99.90
11559;DHT22;5835;42.930;25.178;2022-12-07T09:20:51;5.50;99.90
11559;DHT22;5835;42.930;25.178;2022-12-07T09:23:19;5.40;99.90
11559;DHT22;5835;42.930;25.178;2022-12-07T09:25:47;5.50;99.90
11559;DHT22;5835;42.930;25.178;2022-12-07T09:28:15;5.40;99.90
11559;DHT22;5835;42.930;25.178;2022-12-07T09:30:46;5.50;99.90
11559;DHT22;5835;42.930;25.178;2022-12-07T09:33:13;5.60;99.90
11559;DHT22;5835;42.930;25.178;2022-12-07T09:35:44;5.80;99.90
11559;DHT22;5835;42.930;25.178;2022-12-07T09:38:12;5.90;99.90
11559;DHT22;5835;42.930;25.178;2022-12-07T09:40:40;6.00;99.90
11559;DHT22;5835;42.930;25.178;2022-12-07T09:43:14;6.20;99.90
11559;DHT22;5835;42.930;25.178;2022-12-07T09:45:43;5.90;99.90
11559;DHT22;5835;42.930;25.178;2022-12-07T09:48:16;6.00;99.90
11559;DHT22;5835;42.930;25.178;2022-12-07T09:50:45;6.10;99.90
11559;DHT22;5835;42.930;25.178;2022-12-07T09:53:15;6.20;99.90
11559;DHT22;5835;42.930;25.178;2022-12-07T09:55:47;6.30;99.90
11559;DHT22;5835;42.930;25.178;2022-12-07T09:58:20;6.20;99.90
11559;DHT22;5835;42.930;25.178;2022-12-07T10:00:48;6.30;99.90
11559;DHT22;5835;42.930;25.178;2022-12-07T10:03:16;6.40;99.90
11559;DHT22;5835;42.930;25.178;2022-12-07T10:05:46;6.40;99.90
11559;DHT22;5835;42.930;25.178;2022-12-07T10:08:15;6.50;99.90
11559;DHT22;5835;42.930;25.178;2022-12-07T10:10:44;6.30;99.90
11559;DHT22;5835;42.930;25.178;2022-12-07T10:13:13;6.40;99.90
11559;DHT22;5835;42.930;25.178;2022-12-07T10:15:49;6.30;99.90
11559;DHT22;5835;42.930;25.178;2022-12-07T10:18:29;6.40;99.90
11559;DHT22;5835;42.930;25.178;2022-12-07T10:21:08;6.50;99.90
11559;DHT22;5835;42.930;25.178;2022-12-07T10:23:38;6.70;99.90
11559;DHT22;5835;42.930;25.178;2022-12-07T10:26:33;6.90;99.90
11559;DHT22;5835;42.930;25.178;2022-12-07T10:29:12;7.20;99.90
11559;DHT22;5835;42.930;25.178;2022-12-07T10:31:43;7.20;99.90
11559;DHT22;5835;42.930;25.178;2022-12-07T10:34:21;7.30;99.90
11559;DHT22;5835;42.930;25.178;2022-12-07T10:36:51;7.20;99.90
11559;DHT22;5835;42.930;25.178;2022-12-07T10:39:20;7.20;99.90
11559;DHT22;5835;42.930;25.178;2022-12-07T10:41:55;7.30;99.90
11559;DHT22;5835;42.930;25.178;2022-12-07T10:44:26;7.60;99.90
11559;DHT22;5835;42.930;25.178;2022-12-07T10:47:14;7.60;99.90
11559;DHT22;5835;42.930;25.178;2022-12-07T10:50:07;7.60;99.90
11559;DHT22;5835;42.930;25.178;2022-12-07T10:52:45;7.70;99.90
11559;DHT22;5835;42.930;25.178;2022-12-07T10:55:23;7.60;99.90
11559;DHT22;5835;42.930;25.178;2022-12-07T10:58:05;7.70;99.90
11559;DHT22;5835;42.930;25.178;2022-12-07T11:00:39;7.60;99.90
11559;DHT22;5835;42.930;25.178;2022-12-07T11:03:35;7.90;99.90
11559;DHT22;5835;42.930;25.178;2022-12-07T11:06:14;8.30;99.90
11559;DHT22;5835;42.930;25.178;2022-12-07T11:08:56;8.30;99.90
11559;DHT22;5835;42.930;25.178;2022-12-07T11:11:28;8.60;99.90
11559;DHT22;5835;42.930;25.178;2022-12-07T11:14:04;8.60;99.90
11559;DHT22;5835;42.930;25.178;2022-12-07T11:16:41;8.70;97.80
11559;DHT22;5835;42.930;25.178;2022-12-07T11:19:32;8.90;99.90
11559;DHT22;5835;42.930;25.178;2022-12-07T11:22:06;8.70;90.20
11559;DHT22;5835;42.930;25.178;2022-12-07T11:24:40;8.60;99.30
11559;DHT22;5835;42.930;25.178;2022-12-07T11:27:22;8.60;99.90
11559;DHT22;5835;42.930;25.178;2022-12-07T11:29:59;8.80;94.20
11559;DHT22;5835;42.930;25.178;2022-12-07T11:32:51;8.70;89.70
11559;DHT22;5835;42.930;25.178;2022-12-07T11:35:33;8.70;88.80
11559;DHT22;5835;42.930;25.178;2022-12-07T11:38:11;8.70;76.60
11559;DHT22;5835;42.930;25.178;2022-12-07T11:40:40;8.60;91.20
11559;DHT22;5835;42.930;25.178;2022-12-07T11:43:18;8.40;99.90
11559;DHT22;5835;42.930;25.178;2022-12-07T11:45:51;8.50;99.90
11559;DHT22;5835;42.930;25.178;2022-12-07T11:48:24;8.50;99.90
11559;DHT22;5835;42.930;25.178;2022-12-07T11:50:56;8.60;99.90
11559;DHT22;5835;42.930;25.178;2022-12-07T11:53:27;8.50;94.20
11559;DHT22;5835;42.930;25.178;2022-12-07T11:56:00;8.60;97.90
11559;DHT22;5835;42.930;25.178;2022-12-07T11:58:45;8.70;93.00
11559;DHT22;5835;42.930;25.178;2022-12-07T12:01:28;8.70;83.80
11559;DHT22;5835;42.930;25.178;2022-12-07T12:04:02;8.50;93.20
11559;DHT22;5835;42.930;25.178;2022-12-07T12:06:34;8.40;99.90
11559;DHT22;5835;42.930;25.178;2022-12-07T12:09:05;8.40;99.90
11559;DHT22;5835;42.930;25.178;2022-12-07T12:11:52;8.40;99.90
11559;DHT22;5835;42.930;25.178;2022-12-07T12:14:38;8.60;99.90
11559;DHT22;5835;42.930;25.178;2022-12-07T12:17:25;8.90;99.90
11559;DHT22;5835;42.930;25.178;2022-12-07T12:20:01;8.90;96.70
11559;DHT22;5835;42.930;25.178;2022-12-07T12:22:37;8.90;96.10
11559;DHT22;5835;42.930;25.178;2022-12-07T12:25:12;9.20;99.90
11559;DHT22;5835;42.930;25.178;2022-12-07T12:27:46;9.40;88.70
11559;DHT22;5835;42.930;25.178;2022-12-07T12:30:26;9.60;59.70
11559;DHT22;5835;42.930;25.178;2022-12-07T12:33:03;9.70;40.20
11559;DHT22;5835;42.930;25.178;2022-12-07T12:35:33;9.90;8.40
11559;DHT22;5835;42.930;25.178;2022-12-07T12:38:33;9.90;1.00
11559;DHT22;5835;42.930;25.178;2022-12-07T12:41:01;10.10;1.00
11559;DHT22;5835;42.930;25.178;2022-12-07T12:43:47;10.10;1.00
11559;DHT22;5835;42.930;25.178;2022-12-07T12:46:50;10.30;1.00
11559;DHT22;5835;42.930;25.178;2022-12-07T12:49:42;10.20;1.00
11559;DHT22;5835;42.930;25.178;2022-12-07T12:55:19;10.00;1.00
11559;DHT22;5835;42.930;25.178;2022-12-07T12:57:56;10.00;1.00
11559;DHT22;5835;42.930;25.178;2022-12-07T13:00:44;10.30;1.00
11559;DHT22;5835;42.930;25.178;2022-12-07T13:03:23;10.40;1.00
11559;DHT22;5835;42.930;25.178;2022-12-07T13:06:18;10.60;1.00
11559;DHT22;5835;42.930;25.178;2022-12-07T13:08:46;10.50;1.00
11559;DHT22;5835;42.930;25.178;2022-12-07T13:11:27;10.40;1.00
11559;DHT22;5835;42.930;25.178;2022-12-07T13:16:56;10.50;1.00
11559;DHT22;5835;42.930;25.178;2022-12-07T13:19:57;10.60;1.00
11559;DHT22;5835;42.930;25.178;2022-12-07T13:22:43;10.60;1.00
11559;DHT22;5835;42.930;25.178;2022-12-07T13:25:17;10.80;1.00
11559;DHT22;5835;42.930;25.178;2022-12-07T13:27:54;10.80;1.00
11559;DHT22;5835;42.930;25.178;2022-12-07T13:30:23;10.80;1.00
11559;DHT22;5835;42.930;25.178;2022-12-07T13:32:55;10.70;1.00
11559;DHT22;5835;42.930;25.178;2022-12-07T13:35:29;10.70;1.00
11559;DHT22;5835;42.930;25.178;2022-12-07T13:37:57;10.80;1.00
11559;DHT22;5835;42.930;25.178;2022-12-07T13:40:24;10.70;1.00
11559;DHT22;5835;42.930;25.178;2022-12-07T13:43:12;10.70;1.00
11559;DHT22;5835;42.930;25.178;2022-12-07T13:45:42;10.70;1.00
11559;DHT22;5835;42.930;25.178;2022-12-07T13:48:20;10.70;1.00
11559;DHT22;5835;42.930;25.178;2022-12-07T13:50:56;10.50;1.00
11559;DHT22;5835;42.930;25.178;2022-12-07T13:53:24;10.50;1.00
11559;DHT22;5835;42.930;25.178;2022-12-07T13:55:54;10.50;1.00
11559;DHT22;5835;42.930;25.178;2022-12-07T13:58:24;10.80;1.00
11559;DHT22;5835;42.930;25.178;2022-12-07T14:00:51;11.00;1.00
11559;DHT22;5835;42.930;25.178;2022-12-07T14:03:31;11.10;1.00
11559;DHT22;5835;42.930;25.178;2022-12-07T14:06:13;11.20;1.00
11559;DHT22;5835;42.930;25.178;2022-12-07T14:08:41;11.10;1.00
11559;DHT22;5835;42.930;25.178;2022-12-07T14:11:13;11.00;1.00
11559;DHT22;5835;42.930;25.178;2022-12-07T14:13:52;11.00;1.00
11559;DHT22;5835;42.930;25.178;2022-12-07T14:16:25;10.90;1.00
11559;DHT22;5835;42.930;25.178;2022-12-07T14:18:54;10.90;1.00
11559;DHT22;5835;42.930;25.178;2022-12-07T14:21:23;10.90;1.00
11559;DHT22;5835;42.930;25.178;2022-12-07T14:24:19;10.90;1.00
11559;DHT22;5835;42.930;25.178;2022-12-07T14:26:48;10.80;1.00
11559;DHT22;5835;42.930;25.178;2022-12-07T14:29:22;10.70;1.00
11559;DHT22;5835;42.930;25.178;2022-12-07T14:31:57;10.60;1.00
11559;DHT22;5835;42.930;25.178;2022-12-07T14:34:25;10.60;1.00
11559;DHT22;5835;42.930;25.178;2022-12-07T14:36:52;10.40;1.00
11559;DHT22;5835;42.930;25.178;2022-12-07T14:39:20;10.10;1.00
11559;DHT22;5835;42.930;25.178;2022-12-07T14:41:47;9.90;1.00
11559;DHT22;5835;42.930;25.178;2022-12-07T14:44:20;9.90;1.00
11559;DHT22;5835;42.930;25.178;2022-12-07T14:46:48;9.80;3.20
11559;DHT22;5835;42.930;25.178;2022-12-07T14:49:16;9.40;43.80
11559;DHT22;5835;42.930;25.178;2022-12-07T14:51:46;9.30;37.80
11559;DHT22;5835;42.930;25.178;2022-12-07T14:54:16;9.20;65.80
11559;DHT22;5835;42.930;25.178;2022-12-07T14:56:45;9.20;85.90
11559;DHT22;5835;42.930;25.178;2022-12-07T14:59:15;9.10;99.60
11559;DHT22;5835;42.930;25.178;2022-12-07T15:01:44;9.10;99.90
11559;DHT22;5835;42.930;25.178;2022-12-07T15:04:11;9.00;99.90
11559;DHT22;5835;42.930;25.178;2022-12-07T15:06:39;9.00;99.90
11559;DHT22;5835;42.930;25.178;2022-12-07T15:09:10;9.10;93.00
11559;DHT22;5835;42.930;25.178;2022-12-07T15:11:38;8.80;99.90
11559;DHT22;5835;42.930;25.178;2022-12-07T15:14:05;8.70;99.90
11559;DHT22;5835;42.930;25.178;2022-12-07T15:16:39;8.70;99.90
11559;DHT22;5835;42.930;25.178;2022-12-07T15:19:12;8.50;99.90
11559;DHT22;5835;42.930;25.178;2022-12-07T15:21:40;8.30;99.90
11559;DHT22;5835;42.930;25.178;2022-12-07T15:24:09;8.30;99.90
11559;DHT22;5835;42.930;25.178;2022-12-07T15:26:37;8.40;99.90
11559;DHT22;5835;42.930;25.178;2022-12-07T15:29:05;8.40;99.90
11559;DHT22;5835;42.930;25.178;2022-12-07T15:31:34;8.40;99.90
11559;DHT22;5835;42.930;25.178;2022-12-07T15:34:02;8.40;99.90
11559;DHT22;5835;42.930;25.178;2022-12-07T15:36:33;8.20;99.90
11559;DHT22;5835;42.930;25.178;2022-12-07T15:39:02;8.20;99.90
11559;DHT22;5835;42.930;25.178;2022-12-07T15:41:30;8.00;99.90
11559;DHT22;5835;42.930;25.178;2022-12-07T15:43:58;8.10;99.90
11559;DHT22;5835;42.930;25.178;2022-12-07T15:46:40;8.10;99.90
11559;DHT22;5835;42.930;25.178;2022-12-07T15:49:11;8.10;99.90
11559;DHT22;5835;42.930;25.178;2022-12-07T15:51:41;8.10;99.90
11559;DHT22;5835;42.930;25.178;2022-12-07T15:54:13;8.00;99.90
11559;DHT22;5835;42.930;25.178;2022-12-07T15:56:40;7.80;99.90
11559;DHT22;5835;42.930;25.178;2022-12-07T15:59:08;7.90;99.90
11559;DHT22;5835;42.930;25.178;2022-12-07T16:01:35;7.90;99.90
11559;DHT22;5835;42.930;25.178;2022-12-07T16:04:03;7.70;99.90
11559;DHT22;5835;42.930;25.178;2022-12-07T16:06:31;7.50;99.90
11559;DHT22;5835;42.930;25.178;2022-12-07T16:09:01;7.40;99.90
11559;DHT22;5835;42.930;25.178;2022-12-07T16:11:29;7.30;99.90
11559;DHT22;5835;42.930;25.178;2022-12-07T16:13:56;7.30;99.90
11559;DHT22;5835;42.930;25.178;2022-12-07T16:16:24;7.30;99.90
11559;DHT22;5835;42.930;25.178;2022-12-07T16:18:52;7.40;99.90
11559;DHT22;5835;42.930;25.178;2022-12-07T16:21:20;7.50;99.90
11559;DHT22;5835;42.930;25.178;2022-12-07T16:23:47;7.50;99.90
11559;DHT22;5835;42.930;25.178;2022-12-07T16:26:17;7.40;99.90
11559;DHT22;5835;42.930;25.178;2022-12-07T16:28:47;7.50;99.90
11559;DHT22;5835;42.930;25.178;2022-12-07T16:31:17;7.40;99.90